Search for airport 
image banner adimage banner adimage banner ad
image banner ad

5PA4 - Nesspor

Located in Phoenixville, United States

ICAO - 5PA4, IATA -

Data provided by Airmate  

General information

Coordinates: N40°11'23" W75°36'54"
Elevation is 315 feet MSL.
 
View others Airports in Pennsylvania

Operational data

Special qualification required
Current time UTC:
Current local time:
Weather at : KPTW - Heritage Field ( 7 km )
METAR: KPTW 150654Z AUTO 00000KT 10SM BKN090 17/16 A2980 RMK AO2 SLP087 T01720156
View NOTAMs / SUP AIP / TFR affecting this airport [VIEW]
Communications frequencies: [VIEW]

Runways:

RWY identifierQFULength (ft)Width (ft)SurfaceLDA (ft)
161378100GRASS
341378100GRASS

Airport contact information

Address: Phoenixville United States

Satellite view of 5PA4